createdAt,value
2019-01-25T00:01:18.609Z,20.52
2019-01-25T00:03:45.719Z,20.85
2019-01-25T00:06:12.792Z,20.02
2019-01-25T00:08:39.852Z,21.40
2019-01-25T00:11:07.201Z,20.57
2019-01-25T00:13:34.527Z,20.23
2019-01-25T00:16:01.823Z,21.82
2019-01-25T00:18:28.804Z,20.62
2019-01-25T00:20:55.977Z,22.85
2019-01-25T00:23:23.366Z,22.02
2019-01-25T00:25:50.384Z,21.60
2019-01-25T00:28:17.469Z,22.42
2019-01-25T00:30:44.481Z,21.50
2019-01-25T00:33:11.566Z,20.92
2019-01-25T00:35:38.589Z,19.75
2019-01-25T00:38:05.496Z,22.00
2019-01-25T00:40:32.582Z,21.35
2019-01-25T00:42:59.485Z,22.30
2019-01-25T00:45:26.490Z,22.75
2019-01-25T00:47:53.381Z,20.23
2019-01-25T00:50:20.457Z,22.62
2019-01-25T00:52:47.725Z,23.57
2019-01-25T00:55:14.798Z,23.15
2019-01-25T00:57:42.116Z,22.15
2019-01-25T01:00:13.561Z,23.02
2019-01-25T01:02:40.722Z,22.30
2019-01-25T01:05:07.922Z,21.23
2019-01-25T01:07:34.881Z,21.65
2019-01-25T01:10:01.825Z,23.10
2019-01-25T01:12:28.911Z,23.30
2019-01-25T01:14:55.923Z,23.42
2019-01-25T01:17:22.997Z,22.22
2019-01-25T01:19:49.970Z,23.70
2019-01-25T01:22:16.934Z,22.15
2019-01-25T01:24:43.892Z,23.60
2019-01-25T01:27:10.829Z,23.35
2019-01-25T01:29:37.750Z,24.50
2019-01-25T01:32:04.646Z,21.70
2019-01-25T01:34:31.612Z,22.27
2019-01-25T01:36:58.501Z,23.65
2019-01-25T01:39:25.515Z,23.57
2019-01-25T01:41:52.528Z,22.90
2019-01-25T01:44:19.460Z,23.77
2019-01-25T01:46:46.372Z,23.38
2019-01-25T01:49:13.395Z,22.55
2019-01-25T01:51:40.396Z,23.52
2019-01-25T01:54:07.341Z,21.15
2019-01-25T01:56:34.280Z,21.15
2019-01-25T01:59:01.313Z,22.48
2019-01-25T02:01:28.293Z,22.73
2019-01-25T02:03:55.337Z,21.15
2019-01-25T02:06:22.320Z,24.43
2019-01-25T02:08:49.375Z,22.05
2019-01-25T02:11:16.355Z,22.13
2019-01-25T02:13:43.355Z,20.52
2019-01-25T02:16:10.418Z,21.85
2019-01-25T02:18:37.381Z,21.35
2019-01-25T02:21:04.946Z,22.85
2019-01-25T02:23:31.913Z,23.02
2019-01-25T02:25:59.027Z,24.72
2019-01-25T02:28:25.926Z,22.95
2019-01-25T02:30:52.967Z,23.07
2019-01-25T02:33:20.018Z,22.30
2019-01-25T02:35:47.023Z,22.30
2019-01-25T02:38:14.107Z,23.50
2019-01-25T02:40:41.125Z,22.50
2019-01-25T02:43:08.060Z,26.00
2019-01-25T02:45:35.213Z,22.00
2019-01-25T02:48:02.526Z,23.00
2019-01-25T02:50:29.604Z,23.32
2019-01-25T02:53:03.732Z,23.57
2019-01-25T02:55:25.356Z,21.75
2019-01-25T02:57:52.393Z,22.20
2019-01-25T03:00:23.860Z,24.02
2019-01-25T03:02:51.342Z,23.90
2019-01-25T03:05:19.873Z,23.22
2019-01-25T03:07:47.211Z,23.65
2019-01-25T03:10:15.027Z,23.92
2019-01-25T03:12:42.041Z,24.32
2019-01-25T03:15:11.869Z,23.38
2019-01-25T03:17:38.893Z,23.55
2019-01-25T03:20:06.363Z,24.32
2019-01-25T03:22:33.413Z,23.25
2019-01-25T03:25:00.346Z,23.20
2019-01-25T03:27:27.347Z,25.37
2019-01-25T03:29:54.345Z,23.52
2019-01-25T03:32:21.313Z,23.75
2019-01-25T03:34:48.327Z,22.55
2019-01-25T03:37:15.560Z,23.62
2019-01-25T03:39:42.453Z,24.72
2019-01-25T03:42:09.553Z,25.57
2019-01-25T03:44:36.651Z,25.77
2019-01-25T03:47:03.644Z,24.35
2019-01-25T03:49:30.653Z,25.90
2019-01-25T03:51:57.695Z,26.62
2019-01-25T03:54:24.758Z,22.95
2019-01-25T03:56:51.789Z,23.40
2019-01-25T03:59:18.839Z,26.12
2019-01-25T04:01:45.852Z,23.73
2019-01-25T04:04:12.922Z,24.02
2019-01-25T04:06:39.939Z,24.47
2019-01-25T04:09:08.274Z,24.90
2019-01-25T04:11:35.780Z,24.23
2019-01-25T04:14:03.010Z,23.90
2019-01-25T04:16:30.112Z,25.62
2019-01-25T04:18:57.081Z,25.77
2019-01-25T04:21:24.221Z,24.45
2019-01-25T04:23:51.226Z,24.07
2019-01-25T04:26:18.313Z,25.23
2019-01-25T04:28:45.361Z,24.70
2019-01-25T04:31:12.469Z,26.20
2019-01-25T04:33:39.553Z,24.07
2019-01-25T04:36:06.661Z,22.37
2019-01-25T04:38:33.667Z,24.85
2019-01-25T04:41:00.772Z,24.75
2019-01-25T04:43:27.721Z,23.18
2019-01-25T04:45:54.762Z,25.77
2019-01-25T04:48:21.760Z,24.57
2019-01-25T04:50:49.170Z,25.82
2019-01-25T04:53:19.317Z,24.60
2019-01-25T04:55:46.393Z,25.62
2019-01-25T04:58:17.229Z,25.00
2019-01-25T05:00:44.964Z,25.12
2019-01-25T05:03:12.287Z,26.90
2019-01-25T05:05:39.488Z,24.18
2019-01-25T05:08:11.494Z,25.27
2019-01-25T05:10:38.839Z,24.27
2019-01-25T05:13:06.589Z,23.30
2019-01-25T05:15:33.580Z,27.17
2019-01-25T05:18:00.617Z,24.35
2019-01-25T05:20:27.588Z,24.47
2019-01-25T05:22:56.291Z,25.50
2019-01-25T05:25:24.434Z,24.37
2019-01-25T05:27:51.816Z,25.65
2019-01-25T05:30:19.030Z,26.93
2019-01-25T05:32:46.022Z,27.27
2019-01-25T05:35:12.959Z,24.98
2019-01-25T05:37:39.915Z,26.62
2019-01-25T05:40:07.650Z,26.75
2019-01-25T05:42:34.715Z,24.47
2019-01-25T05:45:08.473Z,25.12
2019-01-25T05:47:35.488Z,27.27
2019-01-25T05:50:03.217Z,26.48
2019-01-25T05:52:30.223Z,26.93
2019-01-25T05:54:57.354Z,25.08
2019-01-25T05:57:24.577Z,25.80
2019-01-25T05:59:51.865Z,27.17
2019-01-25T06:02:18.807Z,28.50
2019-01-25T06:04:45.771Z,24.65
2019-01-25T06:07:12.868Z,25.68
2019-01-25T06:09:39.780Z,27.00
2019-01-25T06:12:06.850Z,24.05
2019-01-25T06:14:35.441Z,25.08
2019-01-25T06:17:02.419Z,25.70
2019-01-25T06:19:37.184Z,26.33
2019-01-25T06:22:04.459Z,26.00
2019-01-25T06:24:31.416Z,25.40
2019-01-25T06:26:58.455Z,29.02
2019-01-25T06:29:30.174Z,28.87
2019-01-25T06:31:58.524Z,26.75
2019-01-25T06:34:25.520Z,27.48
2019-01-25T06:36:52.726Z,26.30
2019-01-25T06:39:19.832Z,29.75
2019-01-25T06:41:48.117Z,26.42
2019-01-25T06:44:15.120Z,28.07
2019-01-25T06:46:44.047Z,30.45
2019-01-25T06:49:11.064Z,26.20
2019-01-25T06:51:38.139Z,27.02
2019-01-25T06:54:05.061Z,27.20
2019-01-25T06:56:32.095Z,28.42
2019-01-25T06:59:10.249Z,27.27
2019-01-25T07:01:39.391Z,28.07
2019-01-25T07:04:06.395Z,28.38
2019-01-25T07:06:33.337Z,30.02
2019-01-25T07:09:00.338Z,26.85
2019-01-25T07:11:27.316Z,28.47
2019-01-25T07:13:54.366Z,26.45
2019-01-25T07:16:21.405Z,26.10
2019-01-25T07:18:48.346Z,30.85
2019-01-25T07:21:15.293Z,30.05
2019-01-25T07:23:42.450Z,27.22
2019-01-25T07:26:09.445Z,26.90
2019-01-25T07:28:36.602Z,30.02
2019-01-25T07:31:03.770Z,27.60
2019-01-25T07:33:30.837Z,27.35
2019-01-25T07:35:58.263Z,29.77
2019-01-25T07:38:25.239Z,29.07
2019-01-25T07:40:52.305Z,28.85
2019-01-25T07:43:19.376Z,28.65
2019-01-25T07:45:46.486Z,29.92
2019-01-25T07:48:13.508Z,31.75
2019-01-25T07:50:40.569Z,30.50
2019-01-25T07:53:07.670Z,28.67
2019-01-25T07:55:34.692Z,27.75
2019-01-25T07:58:01.681Z,29.40
2019-01-25T08:00:28.773Z,30.32
2019-01-25T08:02:55.764Z,29.12
2019-01-25T08:05:22.832Z,26.95
2019-01-25T08:07:49.973Z,29.50
2019-01-25T08:10:17.040Z,29.85
2019-01-25T08:12:44.070Z,28.52
2019-01-25T08:15:13.644Z,30.32
2019-01-25T08:17:40.845Z,30.62
2019-01-25T08:20:08.403Z,29.00
2019-01-25T08:22:35.409Z,27.80
2019-01-25T08:25:03.264Z,28.57
2019-01-25T08:27:30.280Z,27.50
2019-01-25T08:29:57.602Z,29.25
2019-01-25T08:32:24.677Z,29.77
2019-01-25T08:34:52.793Z,29.65
2019-01-25T08:37:19.695Z,27.95
2019-01-25T08:39:46.753Z,30.85
2019-01-25T08:42:15.574Z,30.95
2019-01-25T08:44:42.489Z,29.40
2019-01-25T08:47:09.500Z,29.30
2019-01-25T08:49:36.695Z,30.32
2019-01-25T08:52:03.917Z,31.27
2019-01-25T08:54:30.988Z,30.97
2019-01-25T08:56:58.123Z,30.48
2019-01-25T08:59:25.193Z,29.02
2019-01-25T09:01:52.333Z,30.75
2019-01-25T09:04:19.339Z,29.90
2019-01-25T09:06:46.345Z,28.35
2019-01-25T09:09:13.423Z,28.40
2019-01-25T09:11:40.441Z,29.72
2019-01-25T09:14:07.523Z,30.75
2019-01-25T09:16:34.641Z,27.73
2019-01-25T09:19:01.555Z,27.37
2019-01-25T09:21:28.648Z,30.52
2019-01-25T09:23:55.979Z,31.57
2019-01-25T09:26:22.975Z,32.42
2019-01-25T09:28:49.925Z,30.15
2019-01-25T09:31:16.821Z,31.15
2019-01-25T09:33:43.861Z,31.00
2019-01-25T09:36:10.934Z,29.57
2019-01-25T09:38:37.925Z,30.92
2019-01-25T09:41:05.099Z,31.85
2019-01-25T09:43:32.128Z,31.50
2019-01-25T09:45:59.060Z,30.48
2019-01-25T09:48:26.230Z,34.60
2019-01-25T09:50:53.351Z,34.43
2019-01-25T09:53:20.342Z,33.80
2019-01-25T09:55:47.378Z,35.78
2019-01-25T09:58:16.059Z,34.20
2019-01-25T10:00:49.226Z,33.23
2019-01-25T10:03:16.145Z,35.95
2019-01-25T10:05:43.184Z,33.67
2019-01-25T10:08:10.089Z,34.20
2019-01-25T10:10:37.181Z,31.00
2019-01-25T10:13:04.545Z,31.27
2019-01-25T10:15:31.534Z,32.17
2019-01-25T10:17:58.588Z,32.30
2019-01-25T10:20:26.741Z,32.50
2019-01-25T10:22:53.809Z,33.23
2019-01-25T10:25:20.830Z,33.35
2019-01-25T10:27:47.772Z,32.75
2019-01-25T10:30:17.433Z,33.95
2019-01-25T10:32:44.405Z,37.15
2019-01-25T10:35:11.598Z,34.13
2019-01-25T10:37:38.542Z,32.60
2019-01-25T10:40:08.478Z,35.65
2019-01-25T10:42:35.638Z,33.35
2019-01-25T10:45:04.678Z,30.88
2019-01-25T10:47:31.948Z,35.30
2019-01-25T10:49:59.302Z,34.50
2019-01-25T10:52:26.499Z,33.10
2019-01-25T10:54:53.604Z,34.55
2019-01-25T10:57:20.526Z,32.00
2019-01-25T10:59:47.714Z,35.20
2019-01-25T11:02:14.712Z,33.20
2019-01-25T11:04:41.605Z,39.70
2019-01-25T11:07:08.786Z,36.93
2019-01-25T11:09:38.074Z,34.80
2019-01-25T11:12:04.728Z,35.40
2019-01-25T11:14:31.768Z,34.58
2019-01-25T11:16:58.690Z,37.55
2019-01-25T11:19:25.669Z,44.15
2019-01-25T11:21:52.713Z,45.28
2019-01-25T11:24:19.808Z,43.87
2019-01-25T11:26:46.832Z,46.50
2019-01-25T11:29:13.825Z,44.90
2019-01-25T11:31:40.878Z,43.40
2019-01-25T11:34:09.883Z,42.30
2019-01-25T11:36:37.019Z,43.85
2019-01-25T11:39:07.959Z,39.40
2019-01-25T11:41:35.114Z,37.80
2019-01-25T11:44:02.192Z,37.33
2019-01-25T11:46:29.409Z,35.85
2019-01-25T11:48:56.388Z,36.48
2019-01-25T11:51:23.436Z,34.65
2019-01-25T11:53:50.581Z,34.43
2019-01-25T11:56:17.689Z,33.00
2019-01-25T11:58:44.745Z,33.78
2019-01-25T12:01:11.928Z,36.77
2019-01-25T12:03:38.857Z,33.38
2019-01-25T12:06:05.817Z,35.20
2019-01-25T12:08:32.767Z,35.05
2019-01-25T12:10:59.810Z,32.17
2019-01-25T12:13:26.821Z,34.05
2019-01-25T12:15:53.811Z,33.65
2019-01-25T12:18:21.022Z,33.63
2019-01-25T12:20:54.169Z,33.92
2019-01-25T12:23:21.482Z,33.95
2019-01-25T12:25:48.457Z,32.53
2019-01-25T12:28:15.667Z,34.67
2019-01-25T12:30:42.779Z,33.78
2019-01-25T12:33:09.846Z,34.50
2019-01-25T12:35:41.601Z,33.98
2019-01-25T12:38:08.697Z,33.33
2019-01-25T12:40:35.809Z,35.45
2019-01-25T12:43:02.784Z,34.18
2019-01-25T12:45:29.945Z,35.10
2019-01-25T12:47:56.918Z,32.63
2019-01-25T12:50:29.276Z,31.17
2019-01-25T12:52:56.841Z,34.30
2019-01-25T12:55:24.102Z,33.10
2019-01-25T12:57:51.119Z,33.70
2019-01-25T13:00:20.116Z,35.13
2019-01-25T13:02:47.174Z,33.45
2019-01-25T13:05:14.957Z,34.48
2019-01-25T13:07:41.957Z,34.25
2019-01-25T13:10:10.880Z,33.83
2019-01-25T13:12:37.855Z,31.65
2019-01-25T13:15:05.477Z,36.15
2019-01-25T13:17:32.567Z,34.95
2019-01-25T13:19:59.610Z,34.43
2019-01-25T13:22:26.645Z,32.65
2019-01-25T13:24:53.693Z,33.73
2019-01-25T13:27:20.742Z,33.15
2019-01-25T13:29:47.636Z,32.78
2019-01-25T13:32:14.990Z,34.45
2019-01-25T13:34:42.209Z,34.48
2019-01-25T13:37:09.225Z,32.65
2019-01-25T13:39:36.562Z,33.75
2019-01-25T13:42:03.728Z,34.27
2019-01-25T13:44:30.695Z,34.53
2019-01-25T13:46:57.628Z,33.95
2019-01-25T13:49:24.592Z,34.00
2019-01-25T13:51:51.573Z,34.27
2019-01-25T13:54:18.746Z,34.25
2019-01-25T13:56:48.974Z,33.80
2019-01-25T13:59:15.921Z,31.77
2019-01-25T14:01:42.864Z,34.00
2019-01-25T14:04:09.849Z,32.98
2019-01-25T14:06:36.956Z,31.75
2019-01-25T14:09:06.957Z,31.80
2019-01-25T14:11:34.042Z,30.82
2019-01-25T14:14:01.177Z,31.00
2019-01-25T14:16:28.268Z,30.75
2019-01-25T14:18:55.345Z,31.27
2019-01-25T14:21:22.407Z,29.45
2019-01-25T14:23:49.307Z,32.53
2019-01-25T14:26:16.290Z,32.03
2019-01-25T14:28:43.375Z,32.35
2019-01-25T14:31:10.632Z,32.73
2019-01-25T14:33:37.670Z,31.25
2019-01-25T14:36:04.668Z,30.77
2019-01-25T14:38:31.618Z,31.48
2019-01-25T14:40:58.673Z,32.58
2019-01-25T14:43:25.749Z,34.70
2019-01-25T14:45:52.789Z,32.25
2019-01-25T14:48:19.720Z,31.65
2019-01-25T14:50:46.813Z,31.25
2019-01-25T14:53:13.776Z,33.88
2019-01-25T14:55:40.799Z,34.43
2019-01-25T14:58:07.842Z,34.90
2019-01-25T15:00:34.865Z,33.15
2019-01-25T15:03:01.755Z,32.80
2019-01-25T15:05:28.755Z,31.80
2019-01-25T15:07:55.857Z,33.40
2019-01-25T15:10:23.788Z,34.23
2019-01-25T15:12:54.075Z,32.25
2019-01-25T15:15:21.224Z,30.97
2019-01-25T15:17:48.378Z,30.88
2019-01-25T15:20:17.615Z,29.63
2019-01-25T15:22:44.665Z,28.83
2019-01-25T15:25:12.078Z,25.32
2019-01-25T15:27:39.220Z,24.77
2019-01-25T15:30:09.064Z,24.65
2019-01-25T15:32:36.214Z,25.35
2019-01-25T15:35:04.615Z,24.30
2019-01-25T15:37:31.604Z,25.10
2019-01-25T15:39:58.715Z,26.45
2019-01-25T15:42:25.656Z,27.62
2019-01-25T15:44:52.784Z,27.00
2019-01-25T15:47:19.824Z,28.10
2019-01-25T15:49:46.848Z,29.18
2019-01-25T15:52:13.829Z,27.07
2019-01-25T15:54:40.813Z,23.40
2019-01-25T15:57:07.868Z,24.35
2019-01-25T15:59:34.848Z,25.80
2019-01-25T16:02:01.919Z,24.45
2019-01-25T16:04:34.779Z,21.68
2019-01-25T16:06:57.809Z,23.92
2019-01-25T16:09:24.713Z,23.62
2019-01-25T16:11:51.865Z,24.25
2019-01-25T16:14:18.837Z,22.60
2019-01-25T16:16:45.979Z,21.90
2019-01-25T16:19:13.045Z,23.77
2019-01-25T16:21:40.040Z,22.67
2019-01-25T16:24:06.930Z,23.10
2019-01-25T16:26:33.997Z,23.35
2019-01-25T16:29:00.989Z,24.35
2019-01-25T16:31:27.949Z,23.07
2019-01-25T16:33:54.951Z,21.75
2019-01-25T16:36:22.232Z,23.45
2019-01-25T16:38:49.208Z,21.27
2019-01-25T16:41:16.130Z,21.57
2019-01-25T16:43:43.073Z,21.68
2019-01-25T16:46:10.074Z,21.90
2019-01-25T16:48:38.212Z,22.70
2019-01-25T16:51:05.337Z,20.30
2019-01-25T16:53:32.736Z,18.17
2019-01-25T16:55:59.775Z,16.50
2019-01-25T16:58:26.861Z,16.05
2019-01-25T17:00:53.956Z,15.63
2019-01-25T17:03:21.008Z,15.38
2019-01-25T17:05:49.742Z,13.30
2019-01-25T17:08:16.788Z,13.70
2019-01-25T17:10:43.685Z,13.70
2019-01-25T17:13:10.754Z,13.78
2019-01-25T17:15:38.053Z,14.20
2019-01-25T17:18:05.100Z,14.55
2019-01-25T17:20:32.409Z,13.80
2019-01-25T17:22:59.320Z,13.35
2019-01-25T17:25:28.399Z,14.98
2019-01-25T17:27:55.587Z,15.40
2019-01-25T17:30:28.073Z,15.95
2019-01-25T17:32:56.476Z,16.25
2019-01-25T17:35:23.593Z,16.25
2019-01-25T17:37:50.853Z,15.55
2019-01-25T17:40:19.345Z,15.93
2019-01-25T17:42:46.440Z,16.42
2019-01-25T17:45:14.414Z,15.50
2019-01-25T17:48:00.901Z,16.00
2019-01-25T17:50:27.985Z,16.97
2019-01-25T17:52:55.109Z,15.48
2019-01-25T17:55:22.184Z,16.67
2019-01-25T17:57:49.623Z,17.20
2019-01-25T18:00:20.771Z,17.90
2019-01-25T18:02:47.742Z,16.30
2019-01-25T18:05:14.806Z,19.70
2019-01-25T18:07:41.984Z,17.27
2019-01-25T18:10:12.322Z,16.93
2019-01-25T18:12:39.554Z,17.25
2019-01-25T18:15:07.867Z,18.62
2019-01-25T18:17:35.014Z,18.27
2019-01-25T18:20:02.656Z,17.02
2019-01-25T18:22:29.658Z,17.32
2019-01-25T18:24:56.769Z,17.57
2019-01-25T18:27:23.877Z,15.65
2019-01-25T18:29:56.372Z,16.20
2019-01-25T18:32:23.281Z,17.60
2019-01-25T18:34:50.275Z,17.32
2019-01-25T18:37:17.245Z,16.50
2019-01-25T18:39:44.378Z,17.80
2019-01-25T18:42:11.337Z,17.35
2019-01-25T18:44:38.314Z,17.75
2019-01-25T18:47:05.322Z,17.85
2019-01-25T18:49:32.325Z,17.23
2019-01-25T18:51:59.378Z,18.42
2019-01-25T18:54:26.439Z,17.80
2019-01-25T18:56:53.982Z,18.62
2019-01-25T18:59:20.906Z,16.80
2019-01-25T19:01:47.880Z,18.17
2019-01-25T19:04:14.877Z,18.45
2019-01-25T19:06:42.006Z,19.45
2019-01-25T19:09:09.485Z,18.20
2019-01-25T19:11:36.975Z,19.35
2019-01-25T19:14:03.963Z,19.10
2019-01-25T19:16:30.951Z,21.17
2019-01-25T19:18:57.954Z,21.33
2019-01-25T19:21:24.847Z,21.73
2019-01-25T19:23:51.917Z,21.75
2019-01-25T19:26:19.606Z,22.05
2019-01-25T19:28:46.773Z,22.20
2019-01-25T19:31:14.304Z,20.15
2019-01-25T19:33:41.377Z,20.72
2019-01-25T19:36:08.323Z,20.90
2019-01-25T19:38:35.295Z,20.95
2019-01-25T19:41:03.079Z,20.30
2019-01-25T19:43:30.118Z,22.10
2019-01-25T19:45:57.262Z,20.15
2019-01-25T19:48:24.281Z,20.43
2019-01-25T19:50:51.358Z,20.82
2019-01-25T19:53:18.588Z,21.00
2019-01-25T19:55:45.857Z,19.55
2019-01-25T19:58:15.493Z,22.10
2019-01-25T20:00:43.228Z,21.85
2019-01-25T20:03:10.420Z,22.02
2019-01-25T20:05:37.463Z,22.35
2019-01-25T20:08:05.130Z,19.42
2019-01-25T20:10:32.360Z,22.22
2019-01-25T20:12:59.580Z,21.42
2019-01-25T20:15:26.851Z,20.00
2019-01-25T20:17:54.012Z,21.33
2019-01-25T20:20:23.284Z,23.02
2019-01-25T20:22:50.674Z,23.67
2019-01-25T20:25:18.029Z,22.00
2019-01-25T20:27:45.244Z,24.55
2019-01-25T20:30:16.094Z,21.90
2019-01-25T20:32:43.196Z,22.70
2019-01-25T20:35:12.257Z,22.30
2019-01-25T20:37:39.251Z,23.42
2019-01-25T20:40:09.349Z,20.88
2019-01-25T20:42:36.444Z,23.35
2019-01-25T20:45:05.363Z,22.77
2019-01-25T20:47:32.412Z,24.07
2019-01-25T20:49:59.404Z,22.50
2019-01-25T20:52:26.403Z,23.38
2019-01-25T20:54:53.388Z,21.75
2019-01-25T20:57:20.321Z,22.22
2019-01-25T20:59:47.603Z,21.40
2019-01-25T21:02:14.760Z,21.45
2019-01-25T21:04:41.758Z,21.80
2019-01-25T21:07:08.728Z,22.65
2019-01-25T21:09:35.744Z,21.97
2019-01-25T21:12:02.981Z,22.45
2019-01-25T21:14:30.024Z,24.63
2019-01-25T21:16:57.071Z,22.52
2019-01-25T21:19:24.537Z,22.87
2019-01-25T21:21:51.530Z,21.85
2019-01-25T21:24:18.446Z,21.60
2019-01-25T21:26:45.401Z,22.20
2019-01-25T21:29:12.435Z,21.70
2019-01-25T21:31:39.496Z,20.70
2019-01-25T21:34:06.495Z,20.35
2019-01-25T21:36:33.583Z,21.48
2019-01-25T21:39:00.725Z,20.97
2019-01-25T21:41:27.771Z,21.02
2019-01-25T21:43:54.798Z,20.65
2019-01-25T21:46:21.953Z,20.55
2019-01-25T21:48:48.937Z,20.77
2019-01-25T21:51:15.967Z,20.92
2019-01-25T21:53:42.989Z,21.75
2019-01-25T21:56:10.016Z,21.65
2019-01-25T21:58:37.115Z,21.02
2019-01-25T22:01:04.175Z,21.15
2019-01-25T22:03:32.052Z,21.75
2019-01-25T22:05:59.229Z,21.42
2019-01-25T22:08:26.189Z,21.57
2019-01-25T22:10:53.623Z,21.10
2019-01-25T22:13:20.813Z,21.10
2019-01-25T22:15:51.088Z,24.02
2019-01-25T22:18:16.713Z,19.50
2019-01-25T22:20:43.718Z,21.30
2019-01-25T22:23:11.043Z,20.35
2019-01-25T22:25:38.445Z,21.48
2019-01-25T22:28:05.523Z,24.10
2019-01-25T22:30:32.719Z,20.25
2019-01-25T22:32:59.737Z,20.50
2019-01-25T22:35:27.143Z,21.52
2019-01-25T22:37:54.392Z,19.48
2019-01-25T22:40:25.975Z,19.87
2019-01-25T22:42:53.004Z,19.60
2019-01-25T22:45:21.830Z,19.10
2019-01-25T22:47:48.915Z,19.57
2019-01-25T22:50:22.534Z,19.30
2019-01-25T22:52:49.433Z,18.75
2019-01-25T22:55:17.963Z,18.10
2019-01-25T22:57:45.205Z,17.48
2019-01-25T23:00:53.507Z,19.02
2019-01-25T23:03:36.452Z,17.00
2019-01-25T23:06:24.736Z,16.35
2019-01-25T23:08:52.059Z,16.20
2019-01-25T23:11:19.103Z,17.50
2019-01-25T23:13:46.206Z,16.52
2019-01-25T23:16:13.925Z,17.48
2019-01-25T23:18:40.921Z,17.07
2019-01-25T23:21:07.948Z,17.57
2019-01-25T23:23:35.014Z,16.25
2019-01-25T23:26:02.980Z,16.05
2019-01-25T23:28:31.941Z,16.12
2019-01-25T23:30:58.866Z,17.87
2019-01-25T23:33:26.462Z,16.15
2019-01-25T23:35:53.563Z,17.70
2019-01-25T23:38:23.241Z,16.62
2019-01-25T23:40:50.391Z,17.67
2019-01-25T23:43:17.519Z,17.25
2019-01-25T23:45:44.725Z,17.23
2019-01-25T23:48:11.767Z,17.62
2019-01-25T23:50:38.814Z,17.52
2019-01-25T23:53:05.845Z,15.43
2019-01-25T23:55:33.028Z,16.80
2019-01-25T23:57:59.960Z,16.60
